Time,TemperatureF,DewpointF,PressureIn,WindDirection,WindDirectionDegrees,WindSpeedMPH,WindSpeedGustMPH,Humidity,HourlyPrecipIn,Conditions,Clouds,dailyrainin,SoftwareType,DateUTC
2013-05-31 00:01:00,52.0,47.0,30.23,SSE,163,4.0,10.0,84,0.00,,,0.00,,2013-05-31 07:01:00,
2013-05-31 00:11:00,52.0,47.0,30.23,SSE,163,4.0,10.0,84,0.00,,,0.00,,2013-05-31 07:11:00,
2013-05-31 00:21:00,51.0,47.0,30.25,South,183,3.0,9.0,85,0.00,,,0.00,,2013-05-31 07:21:00,
2013-05-31 00:32:00,51.0,47.0,30.25,South,183,3.0,9.0,85,0.00,,,0.00,,2013-05-31 07:32:00,
2013-05-31 00:42:00,51.0,47.0,30.25,South,183,3.0,9.0,85,0.00,,,0.00,,2013-05-31 07:42:00,
2013-05-31 00:52:00,51.0,47.0,30.25,SSE,162,4.0,6.0,87,0.00,,,0.00,,2013-05-31 07:52:00,
2013-05-31 01:01:00,51.0,47.0,30.25,SSE,162,4.0,6.0,87,0.00,,,0.00,,2013-05-31 08:01:00,
2013-05-31 01:11:00,51.0,47.0,30.25,SSE,162,4.0,6.0,87,0.00,,,0.00,,2013-05-31 08:11:00,
2013-05-31 01:21:00,50.0,47.0,30.26,SSW,209,3.0,8.0,88,0.00,,,0.00,,2013-05-31 08:21:00,
2013-05-31 01:31:00,50.0,47.0,30.26,SSW,209,3.0,8.0,88,0.00,,,0.00,,2013-05-31 08:31:00,
2013-05-31 01:42:00,50.0,47.0,30.26,SSW,209,3.0,8.0,88,0.00,,,0.00,,2013-05-31 08:42:00,
2013-05-31 01:52:00,50.0,47.0,30.26,SSE,152,3.0,8.0,88,0.00,,,0.00,,2013-05-31 08:52:00,
2013-05-31 02:01:00,50.0,47.0,30.26,SSE,152,3.0,8.0,88,0.00,,,0.00,,2013-05-31 09:01:00,
2013-05-31 02:11:00,50.0,47.0,30.26,SSE,152,3.0,8.0,88,0.00,,,0.00,,2013-05-31 09:11:00,
2013-05-31 02:21:00,50.0,47.0,30.27,South,180,4.0,8.0,89,0.00,,,0.00,,2013-05-31 09:21:00,
2013-05-31 02:32:00,50.0,47.0,30.27,South,180,4.0,8.0,89,0.00,,,0.00,,2013-05-31 09:32:00,
2013-05-31 02:43:00,50.0,47.0,30.27,South,180,4.0,8.0,89,0.00,,,0.00,,2013-05-31 09:43:00,
2013-05-31 02:53:00,50.0,47.0,30.28,South,191,1.0,3.0,89,0.00,,,0.00,,2013-05-31 09:53:00,
2013-05-31 03:02:00,50.0,47.0,30.28,South,191,1.0,3.0,89,0.00,,,0.00,,2013-05-31 10:02:00,
2013-05-31 03:12:00,50.0,47.0,30.28,South,191,1.0,3.0,89,0.00,,,0.00,,2013-05-31 10:12:00,
2013-05-31 03:22:00,51.0,48.0,30.27,SSW,208,3.0,7.0,90,0.00,,,0.00,,2013-05-31 10:22:00,
2013-05-31 03:32:00,51.0,48.0,30.27,SSW,208,3.0,7.0,90,0.00,,,0.00,,2013-05-31 10:32:00,
2013-05-31 03:42:00,51.0,48.0,30.27,SSW,208,3.0,7.0,90,0.00,,,0.00,,2013-05-31 10:42:00,
2013-05-31 03:52:00,51.0,48.0,30.28,SSW,208,3.0,8.0,90,0.00,,,0.00,,2013-05-31 10:52:00,
2013-05-31 04:01:00,51.0,48.0,30.28,SSW,208,3.0,8.0,90,0.00,,,0.00,,2013-05-31 11:01:00,
2013-05-31 04:11:00,51.0,48.0,30.28,SSW,208,3.0,8.0,90,0.00,,,0.00,,2013-05-31 11:11:00,
2013-05-31 04:22:00,50.0,47.0,30.28,SW,218,2.0,4.0,90,0.00,,,0.00,,2013-05-31 11:22:00,
2013-05-31 04:32:00,50.0,47.0,30.28,SW,218,2.0,4.0,90,0.00,,,0.00,,2013-05-31 11:32:00,
2013-05-31 04:42:00,50.0,47.0,30.28,SW,218,2.0,4.0,90,0.00,,,0.00,,2013-05-31 11:42:00,
2013-05-31 04:52:00,50.0,47.0,30.28,SSW,204,2.0,4.0,90,0.00,,,0.00,,2013-05-31 11:52:00,
2013-05-31 05:01:00,50.0,47.0,30.28,SSW,204,2.0,4.0,90,0.00,,,0.00,,2013-05-31 12:01:00,
2013-05-31 05:11:00,50.0,47.0,30.28,SSW,204,2.0,4.0,90,0.00,,,0.00,,2013-05-31 12:11:00,
2013-05-31 05:21:00,50.0,47.0,30.29,WSW,238,2.0,5.0,90,0.00,,,0.00,,2013-05-31 12:21:00,
2013-05-31 05:31:00,50.0,47.0,30.29,WSW,238,2.0,5.0,90,0.00,,,0.00,,2013-05-31 12:31:00,
2013-05-31 05:42:00,50.0,47.0,30.29,WSW,238,2.0,5.0,90,0.00,,,0.00,,2013-05-31 12:42:00,
2013-05-31 05:52:00,50.0,47.0,30.30,WSW,250,3.0,6.0,90,0.00,,,0.00,,2013-05-31 12:52:00,
2013-05-31 06:01:00,50.0,47.0,30.30,WSW,250,3.0,6.0,90,0.00,,,0.00,,2013-05-31 13:01:00,
2013-05-31 06:11:00,50.0,47.0,30.30,WSW,250,3.0,6.0,90,0.00,,,0.00,,2013-05-31 13:11:00,
2013-05-31 06:21:00,50.0,47.0,30.30,SW,231,2.0,5.0,90,0.00,,,0.00,,2013-05-31 13:21:00,
2013-05-31 06:32:00,50.0,47.0,30.30,SW,231,2.0,5.0,90,0.00,,,0.00,,2013-05-31 13:32:00,
2013-05-31 06:42:00,50.0,47.0,30.30,SW,231,2.0,5.0,90,0.00,,,0.00,,2013-05-31 13:42:00,
2013-05-31 06:52:00,50.0,48.0,30.31,WSW,248,3.0,4.0,92,0.00,,,0.00,,2013-05-31 13:52:00,
2013-05-31 07:02:00,50.0,48.0,30.31,WSW,248,3.0,4.0,92,0.00,,,0.00,,2013-05-31 14:02:00,
2013-05-31 07:11:00,50.0,48.0,30.31,WSW,248,3.0,4.0,92,0.00,,,0.00,,2013-05-31 14:11:00,
2013-05-31 07:21:00,50.0,48.0,30.32,WSW,238,1.0,2.0,92,0.00,,,0.00,,2013-05-31 14:21:00,
2013-05-31 07:31:00,50.0,48.0,30.32,WSW,238,1.0,2.0,92,0.00,,,0.00,,2013-05-31 14:31:00,
2013-05-31 07:42:00,50.0,48.0,30.32,WSW,238,1.0,2.0,92,0.00,,,0.00,,2013-05-31 14:42:00,
2013-05-31 07:52:00,50.0,47.0,30.33,WSW,253,4.0,6.0,91,0.00,,,0.00,,2013-05-31 14:52:00,
2013-05-31 08:01:00,50.0,47.0,30.33,WSW,253,4.0,6.0,91,0.00,,,0.00,,2013-05-31 15:01:00,
2013-05-31 08:11:00,50.0,47.0,30.33,WSW,253,4.0,6.0,91,0.00,,,0.00,,2013-05-31 15:11:00,
2013-05-31 08:21:00,51.0,48.0,30.33,West,276,2.0,6.0,89,0.00,,,0.00,,2013-05-31 15:21:00,
2013-05-31 08:33:00,51.0,48.0,30.33,West,276,2.0,6.0,89,0.00,,,0.00,,2013-05-31 15:33:00,
2013-05-31 08:43:00,51.0,48.0,30.33,West,276,2.0,6.0,89,0.00,,,0.00,,2013-05-31 15:43:00,
2013-05-31 08:53:00,52.0,49.0,30.34,West,270,4.0,8.0,88,0.00,,,0.00,,2013-05-31 15:53:00,
2013-05-31 09:03:00,52.0,49.0,30.34,West,270,4.0,8.0,88,0.00,,,0.00,,2013-05-31 16:03:00,
2013-05-31 09:12:00,52.0,49.0,30.34,West,270,4.0,8.0,88,0.00,,,0.00,,2013-05-31 16:12:00,
2013-05-31 09:22:00,52.0,49.0,30.34,WNW,300,3.0,5.0,88,0.00,,,0.00,,2013-05-31 16:22:00,
2013-05-31 09:33:00,52.0,49.0,30.34,WNW,300,3.0,5.0,88,0.00,,,0.00,,2013-05-31 16:33:00,
2013-05-31 09:42:00,52.0,49.0,30.34,WNW,300,3.0,5.0,88,0.00,,,0.00,,2013-05-31 16:42:00,
2013-05-31 09:52:00,53.0,48.0,30.34,WSW,253,3.0,6.0,83,0.00,,,0.00,,2013-05-31 16:52:00,
2013-05-31 10:02:00,53.0,48.0,30.34,WSW,253,3.0,6.0,83,0.00,,,0.00,,2013-05-31 17:02:00,
2013-05-31 10:12:00,53.0,48.0,30.34,WSW,253,3.0,6.0,83,0.00,,,0.00,,2013-05-31 17:12:00,
2013-05-31 10:22:00,54.0,49.0,30.35,WSW,242,2.0,10.0,82,0.00,,,0.00,,2013-05-31 17:22:00,
2013-05-31 10:31:00,54.0,49.0,30.35,WSW,242,2.0,10.0,82,0.00,,,0.00,,2013-05-31 17:31:00,
2013-05-31 10:42:00,54.0,49.0,30.35,WSW,242,2.0,10.0,82,0.00,,,0.00,,2013-05-31 17:42:00,
2013-05-31 10:52:00,56.0,49.0,30.34,WSW,249,4.0,7.0,77,0.00,,,0.00,,2013-05-31 17:52:00,
2013-05-31 11:01:00,56.0,49.0,30.34,WSW,249,4.0,7.0,77,0.00,,,0.00,,2013-05-31 18:01:00,
2013-05-31 11:11:00,56.0,49.0,30.34,WSW,249,4.0,7.0,77,0.00,,,0.00,,2013-05-31 18:11:00,
2013-05-31 11:22:00,58.0,49.0,30.34,South,188,3.0,5.0,71,0.00,,,0.00,,2013-05-31 18:22:00,
2013-05-31 11:31:00,58.0,49.0,30.34,South,188,3.0,5.0,71,0.00,,,0.00,,2013-05-31 18:31:00,
2013-05-31 11:42:00,58.0,49.0,30.34,South,188,3.0,5.0,71,0.00,,,0.00,,2013-05-31 18:42:00,
2013-05-31 11:52:00,59.0,46.0,30.34,West,278,6.0,8.0,62,0.00,,,0.00,,2013-05-31 18:52:00,
2013-05-31 12:01:00,59.0,46.0,30.34,West,278,6.0,8.0,62,0.00,,,0.00,,2013-05-31 19:01:00,
2013-05-31 12:11:00,59.0,46.0,30.34,West,278,6.0,8.0,62,0.00,,,0.00,,2013-05-31 19:11:00,
2013-05-31 12:22:00,59.0,46.0,30.34,WSW,256,6.0,10.0,63,0.00,,,0.00,,2013-05-31 19:22:00,
2013-05-31 12:31:00,59.0,46.0,30.34,WSW,256,6.0,10.0,63,0.00,,,0.00,,2013-05-31 19:31:00,
2013-05-31 12:42:00,59.0,46.0,30.34,WSW,256,6.0,10.0,63,0.00,,,0.00,,2013-05-31 19:42:00,
2013-05-31 12:52:00,59.0,46.0,30.34,WNW,288,6.0,9.0,63,0.00,,,0.00,,2013-05-31 19:52:00,
2013-05-31 13:01:00,59.0,46.0,30.34,WNW,288,6.0,9.0,63,0.00,,,0.00,,2013-05-31 20:01:00,
2013-05-31 13:11:00,59.0,46.0,30.34,WNW,288,6.0,9.0,63,0.00,,,0.00,,2013-05-31 20:11:00,
2013-05-31 13:22:00,60.0,46.0,30.33,WSW,257,4.0,10.0,60,0.00,,,0.00,,2013-05-31 20:22:00,
2013-05-31 13:31:00,60.0,46.0,30.33,WSW,257,4.0,10.0,60,0.00,,,0.00,,2013-05-31 20:31:00,
2013-05-31 13:42:00,60.0,46.0,30.33,WSW,257,4.0,10.0,60,0.00,,,0.00,,2013-05-31 20:42:00,
2013-05-31 13:52:00,59.0,46.0,30.33,West,260,5.0,9.0,63,0.00,,,0.00,,2013-05-31 20:52:00,
2013-05-31 14:01:00,59.0,46.0,30.33,West,260,5.0,9.0,63,0.00,,,0.00,,2013-05-31 21:01:00,
2013-05-31 14:11:00,59.0,46.0,30.33,West,260,5.0,9.0,63,0.00,,,0.00,,2013-05-31 21:11:00,
2013-05-31 14:22:00,60.0,47.0,30.32,West,276,5.0,10.0,61,0.00,,,0.00,,2013-05-31 21:22:00,
2013-05-31 14:32:00,60.0,47.0,30.32,West,276,5.0,10.0,61,0.00,,,0.00,,2013-05-31 21:32:00,
2013-05-31 14:43:00,60.0,47.0,30.32,West,276,5.0,10.0,61,0.00,,,0.00,,2013-05-31 21:43:00,
2013-05-31 14:54:00,61.0,46.0,30.32,West,271,4.0,9.0,57,0.00,,,0.00,,2013-05-31 21:54:00,
2013-05-31 15:02:00,61.0,46.0,30.32,West,271,4.0,9.0,57,0.00,,,0.00,,2013-05-31 22:02:00,
2013-05-31 15:12:00,61.0,46.0,30.32,West,271,4.0,9.0,57,0.00,,,0.00,,2013-05-31 22:12:00,
2013-05-31 15:22:00,61.0,43.0,30.32,WNW,289,5.0,9.0,51,0.00,,,0.00,,2013-05-31 22:22:00,
2013-05-31 15:33:00,61.0,43.0,30.32,WNW,289,5.0,9.0,51,0.00,,,0.00,,2013-05-31 22:33:00,
2013-05-31 15:42:00,62.0,44.0,30.32,West,281,4.0,8.0,52,0.00,,,0.00,,2013-05-31 22:42:00,
2013-05-31 15:52:00,62.0,44.0,30.32,West,281,4.0,8.0,52,0.00,,,0.00,,2013-05-31 22:52:00,
2013-05-31 16:02:00,62.0,44.0,30.32,West,281,4.0,8.0,52,0.00,,,0.00,,2013-05-31 23:02:00,
2013-05-31 16:12:00,62.0,44.0,30.32,West,281,4.0,8.0,52,0.00,,,0.00,,2013-05-31 23:12:00,
2013-05-31 16:21:00,63.0,46.0,30.31,WNW,302,5.0,10.0,54,0.00,,,0.00,,2013-05-31 23:21:00,
2013-05-31 16:32:00,63.0,46.0,30.31,WNW,302,5.0,10.0,54,0.00,,,0.00,,2013-05-31 23:32:00,
2013-05-31 16:42:00,63.0,44.0,30.31,NW,318,4.0,9.0,49,0.00,,,0.00,,2013-05-31 23:42:00,
2013-05-31 16:52:00,63.0,44.0,30.31,NW,318,4.0,9.0,49,0.00,,,0.00,,2013-05-31 23:52:00,
2013-05-31 17:01:00,63.0,44.0,30.31,NW,318,4.0,9.0,49,0.00,,,0.00,,2013-06-01 00:01:00,
2013-05-31 17:11:00,63.0,44.0,30.31,NW,318,4.0,9.0,49,0.00,,,0.00,,2013-06-01 00:11:00,
2013-05-31 17:22:00,64.0,43.0,30.30,West,274,4.0,9.0,47,0.00,,,0.00,,2013-06-01 00:22:00,
2013-05-31 17:31:00,64.0,43.0,30.30,West,274,4.0,9.0,47,0.00,,,0.00,,2013-06-01 00:31:00,
2013-05-31 17:42:00,64.0,44.0,30.29,West,270,3.0,6.0,48,0.00,,,0.00,,2013-06-01 00:42:00,
2013-05-31 17:52:00,64.0,44.0,30.29,West,270,3.0,6.0,48,0.00,,,0.00,,2013-06-01 00:52:00,
2013-05-31 18:01:00,64.0,44.0,30.29,West,270,3.0,6.0,48,0.00,,,0.00,,2013-06-01 01:01:00,
2013-05-31 18:11:00,64.0,44.0,30.29,West,270,3.0,6.0,48,0.00,,,0.00,,2013-06-01 01:11:00,
2013-05-31 18:21:00,64.0,43.0,30.28,WNW,295,4.0,8.0,46,0.00,,,0.00,,2013-06-01 01:21:00,
2013-05-31 18:31:00,64.0,43.0,30.28,WNW,295,4.0,8.0,46,0.00,,,0.00,,2013-06-01 01:31:00,
2013-05-31 18:42:00,64.0,43.0,30.27,WNW,283,3.0,7.0,46,0.00,,,0.00,,2013-06-01 01:42:00,
2013-05-31 18:52:00,64.0,43.0,30.27,WNW,283,3.0,7.0,46,0.00,,,0.00,,2013-06-01 01:52:00,
2013-05-31 19:01:00,64.0,43.0,30.27,WNW,283,3.0,7.0,46,0.00,,,0.00,,2013-06-01 02:01:00,
2013-05-31 19:11:00,64.0,46.0,30.27,WNW,289,3.0,8.0,52,0.00,,,0.00,,2013-06-01 02:11:00,
2013-05-31 19:21:00,64.0,46.0,30.27,WNW,289,3.0,8.0,52,0.00,,,0.00,,2013-06-01 02:21:00,
2013-05-31 19:31:00,64.0,46.0,30.27,WNW,289,3.0,8.0,52,0.00,,,0.00,,2013-06-01 02:31:00,
2013-05-31 19:42:00,63.0,44.0,30.27,NW,305,5.0,7.0,49,0.00,,,0.00,,2013-06-01 02:42:00,
2013-05-31 19:52:00,63.0,44.0,30.27,NW,305,5.0,7.0,49,0.00,,,0.00,,2013-06-01 02:52:00,
2013-05-31 20:01:00,63.0,44.0,30.27,NW,305,5.0,7.0,49,0.00,,,0.00,,2013-06-01 03:01:00,
2013-05-31 20:11:00,62.0,47.0,30.27,NW,311,5.0,9.0,57,0.00,,,0.00,,2013-06-01 03:11:00,
2013-05-31 20:21:00,62.0,47.0,30.27,NW,311,5.0,9.0,57,0.00,,,0.00,,2013-06-01 03:21:00,
2013-05-31 20:33:00,62.0,47.0,30.27,NW,311,5.0,9.0,57,0.00,,,0.00,,2013-06-01 03:33:00,
2013-05-31 20:43:00,61.0,46.0,30.26,NNE,14,5.0,8.0,57,0.00,,,0.00,,2013-06-01 03:43:00,
2013-05-31 20:53:00,61.0,46.0,30.26,NNE,14,5.0,8.0,57,0.00,,,0.00,,2013-06-01 03:53:00,
2013-05-31 21:02:00,61.0,46.0,30.26,NNE,14,5.0,8.0,57,0.00,,,0.00,,2013-06-01 04:02:00,
2013-05-31 21:12:00,61.0,46.0,30.26,NNE,14,5.0,8.0,57,0.00,,,0.00,,2013-06-01 04:12:00,
2013-05-31 21:22:00,58.0,43.0,30.26,North,1,4.0,6.0,57,0.00,,,0.00,,2013-06-01 04:22:00,
2013-05-31 21:33:00,58.0,43.0,30.26,North,1,4.0,6.0,57,0.00,,,0.00,,2013-06-01 04:33:00,
2013-05-31 21:42:00,57.0,45.0,30.26,North,349,4.0,6.0,63,0.00,,,0.00,,2013-06-01 04:42:00,
2013-05-31 21:53:00,57.0,45.0,30.26,North,349,4.0,6.0,63,0.00,,,0.00,,2013-06-01 04:53:00,
2013-05-31 22:02:00,57.0,45.0,30.26,North,349,4.0,6.0,63,0.00,,,0.00,,2013-06-01 05:02:00,
2013-05-31 22:12:00,57.0,45.0,30.26,North,349,4.0,6.0,63,0.00,,,0.00,,2013-06-01 05:12:00,
2013-05-31 22:22:00,56.0,46.0,30.27,NNE,22,4.0,7.0,68,0.00,,,0.00,,2013-06-01 05:22:00,
2013-05-31 22:32:00,56.0,46.0,30.27,NNE,22,4.0,7.0,68,0.00,,,0.00,,2013-06-01 05:32:00,
2013-05-31 22:42:00,55.0,46.0,30.26,NNE,19,4.0,8.0,72,0.00,,,0.00,,2013-06-01 05:42:00,
2013-05-31 22:52:00,55.0,46.0,30.26,NNE,19,4.0,8.0,72,0.00,,,0.00,,2013-06-01 05:52:00,
2013-05-31 23:01:00,55.0,46.0,30.26,NNE,19,4.0,8.0,72,0.00,,,0.00,,2013-06-01 06:01:00,
2013-05-31 23:12:00,55.0,46.0,30.26,NNE,19,4.0,8.0,72,0.00,,,0.00,,2013-06-01 06:12:00,
2013-05-31 23:22:00,55.0,46.0,30.26,North,357,2.0,4.0,72,0.00,,,0.00,,2013-06-01 06:22:00,
2013-05-31 23:32:00,55.0,46.0,30.26,North,357,2.0,4.0,72,0.00,,,0.00,,2013-06-01 06:32:00,
2013-05-31 23:42:00,55.0,46.0,30.25,North,8,2.0,4.0,71,0.00,,,0.00,,2013-06-01 06:42:00,
2013-05-31 23:52:00,55.0,46.0,30.25,North,8,2.0,4.0,71,0.00,,,0.00,,2013-06-01 06:52:00,